sensor_id;sensor_type;location;lat;lon;timestamp;P1;durP1;ratioP1;P2;durP2;ratioP2
5801;SDS011;2927;49.366;8.530;2023-05-07T00:01:41;3.03;;;2.83;;
5801;SDS011;2927;49.366;8.530;2023-05-07T00:04:07;3.37;;;3.07;;
5801;SDS011;2927;49.366;8.530;2023-05-07T00:06:33;7.07;;;3.20;;
5801;SDS011;2927;49.366;8.530;2023-05-07T00:08:58;4.03;;;3.70;;
5801;SDS011;2927;49.366;8.530;2023-05-07T00:11:24;6.67;;;3.93;;
5801;SDS011;2927;49.366;8.530;2023-05-07T00:13:50;9.77;;;3.70;;
5801;SDS011;2927;49.366;8.530;2023-05-07T00:16:16;5.03;;;3.80;;
5801;SDS011;2927;49.366;8.530;2023-05-07T00:18:42;12.50;;;5.33;;
5801;SDS011;2927;49.366;8.530;2023-05-07T00:21:07;8.53;;;4.10;;
5801;SDS011;2927;49.366;8.530;2023-05-07T00:23:33;7.03;;;4.80;;
5801;SDS011;2927;49.366;8.530;2023-05-07T00:25:58;5.30;;;4.40;;
5801;SDS011;2927;49.366;8.530;2023-05-07T00:28:24;9.13;;;4.50;;
5801;SDS011;2927;49.366;8.530;2023-05-07T00:30:50;6.83;;;5.27;;
5801;SDS011;2927;49.366;8.530;2023-05-07T00:33:15;6.30;;;4.30;;
5801;SDS011;2927;49.366;8.530;2023-05-07T00:35:41;4.73;;;4.17;;
5801;SDS011;2927;49.366;8.530;2023-05-07T00:38:07;6.13;;;3.83;;
5801;SDS011;2927;49.366;8.530;2023-05-07T00:40:33;6.70;;;4.70;;
5801;SDS011;2927;49.366;8.530;2023-05-07T00:42:58;7.67;;;4.50;;
5801;SDS011;2927;49.366;8.530;2023-05-07T00:45:28;7.33;;;5.20;;
5801;SDS011;2927;49.366;8.530;2023-05-07T00:47:54;6.27;;;3.90;;
5801;SDS011;2927;49.366;8.530;2023-05-07T00:50:24;6.80;;;5.10;;
5801;SDS011;2927;49.366;8.530;2023-05-07T00:52:50;7.93;;;5.00;;
5801;SDS011;2927;49.366;8.530;2023-05-07T00:55:16;7.30;;;4.00;;
5801;SDS011;2927;49.366;8.530;2023-05-07T00:57:42;7.30;;;4.90;;
5801;SDS011;2927;49.366;8.530;2023-05-07T01:00:08;4.43;;;3.50;;
5801;SDS011;2927;49.366;8.530;2023-05-07T01:02:35;4.23;;;3.83;;
5801;SDS011;2927;49.366;8.530;2023-05-07T01:05:01;4.80;;;4.07;;
5801;SDS011;2927;49.366;8.530;2023-05-07T01:07:28;4.73;;;3.77;;
5801;SDS011;2927;49.366;8.530;2023-05-07T01:09:55;4.83;;;4.20;;
5801;SDS011;2927;49.366;8.530;2023-05-07T01:12:21;5.50;;;3.87;;
5801;SDS011;2927;49.366;8.530;2023-05-07T01:14:48;5.40;;;3.67;;
5801;SDS011;2927;49.366;8.530;2023-05-07T01:17:15;11.50;;;3.80;;
5801;SDS011;2927;49.366;8.530;2023-05-07T01:19:41;7.67;;;4.33;;
5801;SDS011;2927;49.366;8.530;2023-05-07T01:22:10;10.27;;;4.70;;
5801;SDS011;2927;49.366;8.530;2023-05-07T01:24:36;5.27;;;3.40;;
5801;SDS011;2927;49.366;8.530;2023-05-07T01:27:03;5.03;;;4.10;;
5801;SDS011;2927;49.366;8.530;2023-05-07T01:29:29;5.90;;;3.73;;
5801;SDS011;2927;49.366;8.530;2023-05-07T01:31:58;5.37;;;4.87;;
5801;SDS011;2927;49.366;8.530;2023-05-07T01:34:25;6.97;;;4.33;;
5801;SDS011;2927;49.366;8.530;2023-05-07T01:36:55;5.87;;;3.57;;
5801;SDS011;2927;49.366;8.530;2023-05-07T01:39:24;6.87;;;4.30;;
5801;SDS011;2927;49.366;8.530;2023-05-07T01:41:50;5.53;;;3.90;;
5801;SDS011;2927;49.366;8.530;2023-05-07T01:44:16;6.17;;;5.33;;
5801;SDS011;2927;49.366;8.530;2023-05-07T01:46:43;5.60;;;4.70;;
5801;SDS011;2927;49.366;8.530;2023-05-07T01:49:08;10.73;;;4.80;;
5801;SDS011;2927;49.366;8.530;2023-05-07T01:51:34;4.30;;;3.90;;
5801;SDS011;2927;49.366;8.530;2023-05-07T01:54:01;5.97;;;3.93;;
5801;SDS011;2927;49.366;8.530;2023-05-07T01:56:26;8.63;;;4.57;;
5801;SDS011;2927;49.366;8.530;2023-05-07T01:58:52;6.67;;;4.50;;
5801;SDS011;2927;49.366;8.530;2023-05-07T02:01:17;8.63;;;4.77;;
5801;SDS011;2927;49.366;8.530;2023-05-07T02:03:43;8.70;;;4.10;;
5801;SDS011;2927;49.366;8.530;2023-05-07T02:06:09;5.70;;;4.63;;
5801;SDS011;2927;49.366;8.530;2023-05-07T02:08:35;10.47;;;4.83;;
5801;SDS011;2927;49.366;8.530;2023-05-07T02:11:00;9.37;;;5.10;;
5801;SDS011;2927;49.366;8.530;2023-05-07T02:13:28;8.70;;;5.20;;
5801;SDS011;2927;49.366;8.530;2023-05-07T02:15:55;6.00;;;4.40;;
5801;SDS011;2927;49.366;8.530;2023-05-07T02:18:20;8.30;;;5.40;;
5801;SDS011;2927;49.366;8.530;2023-05-07T02:20:46;6.37;;;4.70;;
5801;SDS011;2927;49.366;8.530;2023-05-07T02:23:11;9.20;;;4.57;;
5801;SDS011;2927;49.366;8.530;2023-05-07T02:25:37;6.53;;;5.20;;
5801;SDS011;2927;49.366;8.530;2023-05-07T02:28:03;5.27;;;4.70;;
5801;SDS011;2927;49.366;8.530;2023-05-07T02:30:28;6.63;;;5.53;;
5801;SDS011;2927;49.366;8.530;2023-05-07T02:32:54;9.70;;;4.93;;
5801;SDS011;2927;49.366;8.530;2023-05-07T02:35:19;5.90;;;4.50;;
5801;SDS011;2927;49.366;8.530;2023-05-07T02:37:45;8.83;;;5.00;;
5801;SDS011;2927;49.366;8.530;2023-05-07T02:40:11;10.50;;;4.33;;
5801;SDS011;2927;49.366;8.530;2023-05-07T02:42:36;5.77;;;4.30;;
5801;SDS011;2927;49.366;8.530;2023-05-07T02:45:02;5.60;;;5.07;;
5801;SDS011;2927;49.366;8.530;2023-05-07T02:47:28;5.07;;;4.40;;
5801;SDS011;2927;49.366;8.530;2023-05-07T02:49:54;12.97;;;5.03;;
5801;SDS011;2927;49.366;8.530;2023-05-07T02:52:20;4.97;;;4.30;;
5801;SDS011;2927;49.366;8.530;2023-05-07T02:54:45;5.37;;;4.83;;
5801;SDS011;2927;49.366;8.530;2023-05-07T02:57:11;7.30;;;4.70;;
5801;SDS011;2927;49.366;8.530;2023-05-07T02:59:36;8.03;;;5.37;;
5801;SDS011;2927;49.366;8.530;2023-05-07T03:02:02;10.00;;;5.80;;
5801;SDS011;2927;49.366;8.530;2023-05-07T03:04:28;7.73;;;5.53;;
5801;SDS011;2927;49.366;8.530;2023-05-07T03:06:53;12.77;;;5.33;;
5801;SDS011;2927;49.366;8.530;2023-05-07T03:09:19;7.83;;;4.93;;
5801;SDS011;2927;49.366;8.530;2023-05-07T03:11:45;4.93;;;4.33;;
5801;SDS011;2927;49.366;8.530;2023-05-07T03:14:10;5.77;;;4.53;;
5801;SDS011;2927;49.366;8.530;2023-05-07T03:16:36;6.40;;;4.43;;
5801;SDS011;2927;49.366;8.530;2023-05-07T03:19:03;7.37;;;6.53;;
5801;SDS011;2927;49.366;8.530;2023-05-07T03:21:28;10.03;;;6.17;;
5801;SDS011;2927;49.366;8.530;2023-05-07T03:23:55;6.50;;;5.23;;
5801;SDS011;2927;49.366;8.530;2023-05-07T03:26:21;13.30;;;5.13;;
5801;SDS011;2927;49.366;8.530;2023-05-07T03:28:46;5.10;;;4.60;;
5801;SDS011;2927;49.366;8.530;2023-05-07T03:31:12;4.30;;;3.90;;
5801;SDS011;2927;49.366;8.530;2023-05-07T03:33:39;5.10;;;4.00;;
5801;SDS011;2927;49.366;8.530;2023-05-07T03:36:21;4.67;;;4.27;;
5801;SDS011;2927;49.366;8.530;2023-05-07T03:38:47;6.80;;;4.20;;
5801;SDS011;2927;49.366;8.530;2023-05-07T03:41:13;6.40;;;4.80;;
5801;SDS011;2927;49.366;8.530;2023-05-07T03:43:39;5.33;;;4.17;;
5801;SDS011;2927;49.366;8.530;2023-05-07T03:46:05;5.30;;;4.80;;
5801;SDS011;2927;49.366;8.530;2023-05-07T03:48:30;5.10;;;4.60;;
5801;SDS011;2927;49.366;8.530;2023-05-07T03:50:56;12.40;;;5.87;;
5801;SDS011;2927;49.366;8.530;2023-05-07T03:53:22;9.87;;;5.93;;
5801;SDS011;2927;49.366;8.530;2023-05-07T03:55:48;9.50;;;6.43;;
5801;SDS011;2927;49.366;8.530;2023-05-07T03:58:13;9.60;;;6.63;;
5801;SDS011;2927;49.366;8.530;2023-05-07T04:00:39;7.93;;;6.87;;
5801;SDS011;2927;49.366;8.530;2023-05-07T04:03:05;11.70;;;7.47;;
5801;SDS011;2927;49.366;8.530;2023-05-07T04:05:31;9.40;;;6.53;;
5801;SDS011;2927;49.366;8.530;2023-05-07T04:07:59;8.60;;;7.30;;
5801;SDS011;2927;49.366;8.530;2023-05-07T04:10:25;12.70;;;7.57;;
5801;SDS011;2927;49.366;8.530;2023-05-07T04:12:51;8.27;;;7.10;;
5801;SDS011;2927;49.366;8.530;2023-05-07T04:15:16;10.07;;;7.23;;
5801;SDS011;2927;49.366;8.530;2023-05-07T04:17:42;8.37;;;6.17;;
5801;SDS011;2927;49.366;8.530;2023-05-07T04:20:13;9.63;;;6.30;;
5801;SDS011;2927;49.366;8.530;2023-05-07T04:22:41;8.23;;;6.13;;
5801;SDS011;2927;49.366;8.530;2023-05-07T04:25:07;5.97;;;5.47;;
5801;SDS011;2927;49.366;8.530;2023-05-07T04:27:36;9.70;;;6.97;;
5801;SDS011;2927;49.366;8.530;2023-05-07T04:30:02;12.80;;;6.87;;
5801;SDS011;2927;49.366;8.530;2023-05-07T04:32:28;7.77;;;5.90;;
5801;SDS011;2927;49.366;8.530;2023-05-07T04:34:58;9.37;;;7.17;;
5801;SDS011;2927;49.366;8.530;2023-05-07T04:37:23;12.00;;;8.20;;
5801;SDS011;2927;49.366;8.530;2023-05-07T04:39:50;9.00;;;7.60;;
5801;SDS011;2927;49.366;8.530;2023-05-07T04:42:16;10.50;;;6.27;;
5801;SDS011;2927;49.366;8.530;2023-05-07T04:44:43;9.07;;;5.90;;
5801;SDS011;2927;49.366;8.530;2023-05-07T04:47:09;7.10;;;5.80;;
5801;SDS011;2927;49.366;8.530;2023-05-07T04:49:35;10.60;;;6.20;;
5801;SDS011;2927;49.366;8.530;2023-05-07T04:52:00;7.77;;;5.20;;
5801;SDS011;2927;49.366;8.530;2023-05-07T04:54:26;6.10;;;4.83;;
5801;SDS011;2927;49.366;8.530;2023-05-07T04:56:51;8.67;;;5.23;;
5801;SDS011;2927;49.366;8.530;2023-05-07T04:59:17;5.93;;;5.33;;
5801;SDS011;2927;49.366;8.530;2023-05-07T05:01:43;5.20;;;4.70;;
5801;SDS011;2927;49.366;8.530;2023-05-07T05:04:08;4.90;;;4.40;;
5801;SDS011;2927;49.366;8.530;2023-05-07T05:06:35;7.77;;;5.93;;
5801;SDS011;2927;49.366;8.530;2023-05-07T05:09:00;7.73;;;4.90;;
5801;SDS011;2927;49.366;8.530;2023-05-07T05:11:26;6.97;;;4.80;;
5801;SDS011;2927;49.366;8.530;2023-05-07T05:13:51;7.37;;;4.63;;
5801;SDS011;2927;49.366;8.530;2023-05-07T05:16:17;5.07;;;4.50;;
5801;SDS011;2927;49.366;8.530;2023-05-07T05:18:42;5.07;;;4.67;;
5801;SDS011;2927;49.366;8.530;2023-05-07T05:21:08;8.47;;;5.00;;
5801;SDS011;2927;49.366;8.530;2023-05-07T05:23:33;7.70;;;5.40;;
5801;SDS011;2927;49.366;8.530;2023-05-07T05:25:59;7.83;;;5.33;;
5801;SDS011;2927;49.366;8.530;2023-05-07T05:28:25;6.37;;;5.27;;
5801;SDS011;2927;49.366;8.530;2023-05-07T05:30:50;6.87;;;5.80;;
5801;SDS011;2927;49.366;8.530;2023-05-07T05:33:16;8.73;;;5.40;;
5801;SDS011;2927;49.366;8.530;2023-05-07T05:35:41;6.17;;;5.57;;
5801;SDS011;2927;49.366;8.530;2023-05-07T05:38:07;7.10;;;5.07;;
5801;SDS011;2927;49.366;8.530;2023-05-07T05:40:33;5.07;;;4.57;;
5801;SDS011;2927;49.366;8.530;2023-05-07T05:42:58;5.30;;;4.67;;
5801;SDS011;2927;49.366;8.530;2023-05-07T05:45:24;5.27;;;4.87;;
5801;SDS011;2927;49.366;8.530;2023-05-07T05:47:50;6.83;;;4.53;;
5801;SDS011;2927;49.366;8.530;2023-05-07T05:50:15;4.80;;;4.37;;
5801;SDS011;2927;49.366;8.530;2023-05-07T05:52:41;6.43;;;4.17;;
5801;SDS011;2927;49.366;8.530;2023-05-07T05:55:07;9.20;;;5.43;;
5801;SDS011;2927;49.366;8.530;2023-05-07T05:57:33;5.87;;;5.33;;
5801;SDS011;2927;49.366;8.530;2023-05-07T05:59:59;4.13;;;3.80;;
5801;SDS011;2927;49.366;8.530;2023-05-07T06:02:25;7.00;;;4.60;;
5801;SDS011;2927;49.366;8.530;2023-05-07T06:04:51;6.63;;;4.40;;
5801;SDS011;2927;49.366;8.530;2023-05-07T06:07:16;6.47;;;4.27;;
5801;SDS011;2927;49.366;8.530;2023-05-07T06:09:42;4.23;;;3.90;;
5801;SDS011;2927;49.366;8.530;2023-05-07T06:12:07;5.23;;;4.20;;
5801;SDS011;2927;49.366;8.530;2023-05-07T06:14:33;5.40;;;4.40;;
5801;SDS011;2927;49.366;8.530;2023-05-07T06:16:58;9.50;;;4.90;;
5801;SDS011;2927;49.366;8.530;2023-05-07T06:19:24;8.40;;;4.10;;
5801;SDS011;2927;49.366;8.530;2023-05-07T06:21:51;4.10;;;3.30;;
5801;SDS011;2927;49.366;8.530;2023-05-07T06:24:17;4.47;;;4.07;;
5801;SDS011;2927;49.366;8.530;2023-05-07T06:26:42;9.20;;;3.90;;
5801;SDS011;2927;49.366;8.530;2023-05-07T06:29:08;3.83;;;3.43;;
5801;SDS011;2927;49.366;8.530;2023-05-07T06:31:33;6.80;;;3.67;;
5801;SDS011;2927;49.366;8.530;2023-05-07T06:33:59;8.07;;;4.63;;
5801;SDS011;2927;49.366;8.530;2023-05-07T06:36:26;4.30;;;3.77;;
5801;SDS011;2927;49.366;8.530;2023-05-07T06:38:52;4.27;;;3.90;;
5801;SDS011;2927;49.366;8.530;2023-05-07T06:41:18;4.10;;;3.80;;
5801;SDS011;2927;49.366;8.530;2023-05-07T06:43:43;8.77;;;3.70;;
5801;SDS011;2927;49.366;8.530;2023-05-07T06:46:09;4.60;;;3.80;;
5801;SDS011;2927;49.366;8.530;2023-05-07T06:48:34;4.93;;;3.53;;
5801;SDS011;2927;49.366;8.530;2023-05-07T06:51:00;5.87;;;3.83;;
5801;SDS011;2927;49.366;8.530;2023-05-07T06:53:25;7.03;;;3.70;;
5801;SDS011;2927;49.366;8.530;2023-05-07T06:55:51;4.23;;;2.80;;
5801;SDS011;2927;49.366;8.530;2023-05-07T06:58:17;8.00;;;4.00;;
5801;SDS011;2927;49.366;8.530;2023-05-07T07:00:42;5.10;;;3.50;;
5801;SDS011;2927;49.366;8.530;2023-05-07T07:03:08;6.30;;;3.73;;
5801;SDS011;2927;49.366;8.530;2023-05-07T07:05:33;6.53;;;4.00;;
5801;SDS011;2927;49.366;8.530;2023-05-07T07:07:59;6.70;;;4.90;;
5801;SDS011;2927;49.366;8.530;2023-05-07T07:10:24;8.30;;;4.23;;
5801;SDS011;2927;49.366;8.530;2023-05-07T07:12:50;5.80;;;3.70;;
5801;SDS011;2927;49.366;8.530;2023-05-07T07:15:17;6.53;;;3.70;;
5801;SDS011;2927;49.366;8.530;2023-05-07T07:17:43;7.27;;;4.03;;
5801;SDS011;2927;49.366;8.530;2023-05-07T07:20:09;3.00;;;2.80;;
5801;SDS011;2927;49.366;8.530;2023-05-07T07:22:35;5.03;;;2.90;;
5801;SDS011;2927;49.366;8.530;2023-05-07T07:25:00;12.27;;;3.65;;
5801;SDS011;2927;49.366;8.530;2023-05-07T07:27:26;3.70;;;2.80;;
5801;SDS011;2927;49.366;8.530;2023-05-07T07:29:51;3.17;;;2.85;;
5801;SDS011;2927;49.366;8.530;2023-05-07T07:32:17;3.47;;;2.50;;
5801;SDS011;2927;49.366;8.530;2023-05-07T07:34:43;4.40;;;2.23;;
5801;SDS011;2927;49.366;8.530;2023-05-07T07:37:08;2.30;;;2.10;;
5801;SDS011;2927;49.366;8.530;2023-05-07T07:39:34;2.80;;;2.60;;
5801;SDS011;2927;49.366;8.530;2023-05-07T07:42:00;2.63;;;2.43;;
5801;SDS011;2927;49.366;8.530;2023-05-07T07:44:27;3.03;;;2.40;;
5801;SDS011;2927;49.366;8.530;2023-05-07T07:46:53;9.73;;;2.93;;
5801;SDS011;2927;49.366;8.530;2023-05-07T07:49:18;2.60;;;2.30;;
5801;SDS011;2927;49.366;8.530;2023-05-07T07:51:44;2.33;;;2.20;;
5801;SDS011;2927;49.366;8.530;2023-05-07T07:54:10;2.70;;;2.50;;
5801;SDS011;2927;49.366;8.530;2023-05-07T07:56:36;3.97;;;2.90;;
5801;SDS011;2927;49.366;8.530;2023-05-07T07:59:01;4.43;;;3.03;;
5801;SDS011;2927;49.366;8.530;2023-05-07T08:01:29;2.17;;;2.07;;
5801;SDS011;2927;49.366;8.530;2023-05-07T08:03:55;3.23;;;3.00;;
5801;SDS011;2927;49.366;8.530;2023-05-07T08:06:20;3.47;;;3.00;;
5801;SDS011;2927;49.366;8.530;2023-05-07T08:08:46;7.23;;;2.40;;
5801;SDS011;2927;49.366;8.530;2023-05-07T08:11:11;10.20;;;2.70;;
5801;SDS011;2927;49.366;8.530;2023-05-07T08:13:37;3.13;;;2.73;;
5801;SDS011;2927;49.366;8.530;2023-05-07T08:16:03;11.60;;;5.97;;
5801;SDS011;2927;49.366;8.530;2023-05-07T08:18:29;5.27;;;3.53;;
5801;SDS011;2927;49.366;8.530;2023-05-07T08:20:55;10.57;;;6.80;;
5801;SDS011;2927;49.366;8.530;2023-05-07T08:23:21;4.57;;;3.00;;
5801;SDS011;2927;49.366;8.530;2023-05-07T08:25:46;4.00;;;2.47;;
5801;SDS011;2927;49.366;8.530;2023-05-07T08:28:12;2.40;;;2.17;;
5801;SDS011;2927;49.366;8.530;2023-05-07T08:30:38;2.63;;;2.43;;
5801;SDS011;2927;49.366;8.530;2023-05-07T08:33:03;2.83;;;2.10;;
5801;SDS011;2927;49.366;8.530;2023-05-07T08:35:29;3.88;;;2.38;;
5801;SDS011;2927;49.366;8.530;2023-05-07T08:37:54;2.88;;;2.30;;
5801;SDS011;2927;49.366;8.530;2023-05-07T08:40:20;2.35;;;1.98;;
5801;SDS011;2927;49.366;8.530;2023-05-07T08:42:49;3.00;;;2.70;;
5801;SDS011;2927;49.366;8.530;2023-05-07T08:45:17;1.92;;;1.83;;
5801;SDS011;2927;49.366;8.530;2023-05-07T08:47:46;1.83;;;1.73;;
5801;SDS011;2927;49.366;8.530;2023-05-07T08:50:15;1.50;;;1.50;;
5801;SDS011;2927;49.366;8.530;2023-05-07T08:52:41;5.97;;;2.28;;
5801;SDS011;2927;49.366;8.530;2023-05-07T08:55:07;1.98;;;1.88;;
5801;SDS011;2927;49.366;8.530;2023-05-07T08:57:33;2.30;;;2.20;;
5801;SDS011;2927;49.366;8.530;2023-05-07T08:59:59;9.85;;;2.30;;
5801;SDS011;2927;49.366;8.530;2023-05-07T09:02:25;2.35;;;2.15;;
5801;SDS011;2927;49.366;8.530;2023-05-07T09:04:51;4.95;;;2.60;;
5801;SDS011;2927;49.366;8.530;2023-05-07T09:07:17;4.20;;;2.08;;
5801;SDS011;2927;49.366;8.530;2023-05-07T09:09:44;2.50;;;2.30;;
5801;SDS011;2927;49.366;8.530;2023-05-07T09:12:10;2.50;;;2.30;;
5801;SDS011;2927;49.366;8.530;2023-05-07T09:14:35;11.25;;;2.67;;
5801;SDS011;2927;49.366;8.530;2023-05-07T09:17:01;2.20;;;2.05;;
5801;SDS011;2927;49.366;8.530;2023-05-07T09:19:26;2.40;;;1.60;;
5801;SDS011;2927;49.366;8.530;2023-05-07T09:21:59;1.52;;;1.50;;
5801;SDS011;2927;49.366;8.530;2023-05-07T09:24:26;2.33;;;2.22;;
5801;SDS011;2927;49.366;8.530;2023-05-07T09:26:53;2.50;;;2.30;;
5801;SDS011;2927;49.366;8.530;2023-05-07T09:29:20;1.83;;;1.65;;
5801;SDS011;2927;49.366;8.530;2023-05-07T09:31:46;2.47;;;2.22;;
5801;SDS011;2927;49.366;8.530;2023-05-07T09:34:11;5.00;;;1.70;;
5801;SDS011;2927;49.366;8.530;2023-05-07T09:36:37;3.85;;;2.58;;
5801;SDS011;2927;49.366;8.530;2023-05-07T09:39:02;1.95;;;1.85;;
5801;SDS011;2927;49.366;8.530;2023-05-07T09:41:29;2.38;;;2.08;;
5801;SDS011;2927;49.366;8.530;2023-05-07T09:43:57;1.70;;;1.63;;
5801;SDS011;2927;49.366;8.530;2023-05-07T09:46:25;1.80;;;1.70;;
5801;SDS011;2927;49.366;8.530;2023-05-07T09:48:56;2.00;;;1.80;;
5801;SDS011;2927;49.366;8.530;2023-05-07T09:51:30;3.05;;;1.88;;
5801;SDS011;2927;49.366;8.530;2023-05-07T09:54:04;3.00;;;2.50;;
5801;SDS011;2927;49.366;8.530;2023-05-07T09:56:30;1.58;;;1.55;;
5801;SDS011;2927;49.366;8.530;2023-05-07T09:58:57;6.05;;;1.80;;
5801;SDS011;2927;49.366;8.530;2023-05-07T10:01:25;2.10;;;2.00;;
5801;SDS011;2927;49.366;8.530;2023-05-07T10:03:52;2.60;;;1.60;;
5801;SDS011;2927;49.366;8.530;2023-05-07T10:06:18;1.70;;;1.60;;
5801;SDS011;2927;49.366;8.530;2023-05-07T10:08:45;2.05;;;1.45;;
5801;SDS011;2927;49.366;8.530;2023-05-07T10:11:11;2.13;;;1.90;;
5801;SDS011;2927;49.366;8.530;2023-05-07T10:13:37;2.00;;;1.90;;
5801;SDS011;2927;49.366;8.530;2023-05-07T10:16:06;1.48;;;1.42;;
5801;SDS011;2927;49.366;8.530;2023-05-07T10:18:32;1.60;;;1.50;;
5801;SDS011;2927;49.366;8.530;2023-05-07T10:21:19;2.10;;;2.00;;
5801;SDS011;2927;49.366;8.530;2023-05-07T10:23:45;1.95;;;1.67;;
5801;SDS011;2927;49.366;8.530;2023-05-07T10:26:12;2.50;;;1.70;;
5801;SDS011;2927;49.366;8.530;2023-05-07T10:28:41;2.78;;;2.38;;
5801;SDS011;2927;49.366;8.530;2023-05-07T10:31:23;4.18;;;2.05;;
5801;SDS011;2927;49.366;8.530;2023-05-07T10:34:00;2.50;;;2.30;;
5801;SDS011;2927;49.366;8.530;2023-05-07T10:36:27;4.83;;;2.10;;
5801;SDS011;2927;49.366;8.530;2023-05-07T10:38:53;3.10;;;2.07;;
5801;SDS011;2927;49.366;8.530;2023-05-07T10:41:20;2.83;;;2.67;;
5801;SDS011;2927;49.366;8.530;2023-05-07T10:43:46;2.53;;;2.33;;
5801;SDS011;2927;49.366;8.530;2023-05-07T10:51:26;1.83;;;1.73;;
5801;SDS011;2927;49.366;8.530;2023-05-07T10:56:36;3.13;;;1.73;;
5801;SDS011;2927;49.366;8.530;2023-05-07T11:04:31;5.13;;;2.10;;
5801;SDS011;2927;49.366;8.530;2023-05-07T11:15:11;1.47;;;1.17;;
5801;SDS011;2927;49.366;8.530;2023-05-07T11:17:56;2.53;;;1.80;;
5801;SDS011;2927;49.366;8.530;2023-05-07T11:26:03;1.40;;;1.40;;
5801;SDS011;2927;49.366;8.530;2023-05-07T11:28:38;1.70;;;1.33;;
5801;SDS011;2927;49.366;8.530;2023-05-07T11:31:05;3.37;;;1.60;;
5801;SDS011;2927;49.366;8.530;2023-05-07T11:33:32;1.40;;;1.30;;
5801;SDS011;2927;49.366;8.530;2023-05-07T11:35:57;3.27;;;1.97;;
5801;SDS011;2927;49.366;8.530;2023-05-07T11:38:25;1.20;;;1.10;;
5801;SDS011;2927;49.366;8.530;2023-05-07T11:40:51;3.30;;;1.90;;
5801;SDS011;2927;49.366;8.530;2023-05-07T11:43:18;1.57;;;1.47;;
5801;SDS011;2927;49.366;8.530;2023-05-07T11:45:46;2.67;;;1.53;;
5801;SDS011;2927;49.366;8.530;2023-05-07T11:48:13;1.20;;;1.10;;
5801;SDS011;2927;49.366;8.530;2023-05-07T11:50:52;5.37;;;1.47;;
5801;SDS011;2927;49.366;8.530;2023-05-07T11:53:19;1.53;;;1.20;;
5801;SDS011;2927;49.366;8.530;2023-05-07T11:55:51;2.23;;;2.10;;
5801;SDS011;2927;49.366;8.530;2023-05-07T11:58:20;1.80;;;1.07;;
5801;SDS011;2927;49.366;8.530;2023-05-07T12:00:50;4.53;;;1.40;;
5801;SDS011;2927;49.366;8.530;2023-05-07T12:03:16;2.03;;;1.37;;
5801;SDS011;2927;49.366;8.530;2023-05-07T12:05:42;1.70;;;1.43;;
5801;SDS011;2927;49.366;8.530;2023-05-07T12:08:13;1.57;;;1.47;;
5801;SDS011;2927;49.366;8.530;2023-05-07T12:10:41;1.40;;;1.30;;
5801;SDS011;2927;49.366;8.530;2023-05-07T12:13:20;2.93;;;1.57;;
5801;SDS011;2927;49.366;8.530;2023-05-07T12:15:47;1.50;;;1.27;;
5801;SDS011;2927;49.366;8.530;2023-05-07T12:18:15;1.60;;;1.50;;
5801;SDS011;2927;49.366;8.530;2023-05-07T12:20:41;1.83;;;1.20;;
5801;SDS011;2927;49.366;8.530;2023-05-07T12:23:07;3.63;;;1.50;;
5801;SDS011;2927;49.366;8.530;2023-05-07T12:25:37;1.73;;;1.60;;
5801;SDS011;2927;49.366;8.530;2023-05-07T12:28:03;1.80;;;1.60;;
5801;SDS011;2927;49.366;8.530;2023-05-07T12:30:36;3.63;;;2.00;;
5801;SDS011;2927;49.366;8.530;2023-05-07T12:33:02;2.63;;;1.37;;
5801;SDS011;2927;49.366;8.530;2023-05-07T12:35:31;1.50;;;1.40;;
5801;SDS011;2927;49.366;8.530;2023-05-07T12:38:01;2.30;;;1.80;;
5801;SDS011;2927;49.366;8.530;2023-05-07T12:40:38;1.70;;;1.63;;
5801;SDS011;2927;49.366;8.530;2023-05-07T12:43:25;1.97;;;1.80;;
5801;SDS011;2927;49.366;8.530;2023-05-07T12:45:56;1.93;;;1.73;;
5801;SDS011;2927;49.366;8.530;2023-05-07T12:48:23;1.60;;;1.50;;
5801;SDS011;2927;49.366;8.530;2023-05-07T12:50:52;4.00;;;1.87;;
5801;SDS011;2927;49.366;8.530;2023-05-07T12:53:20;5.10;;;1.80;;
5801;SDS011;2927;49.366;8.530;2023-05-07T12:55:48;2.27;;;1.57;;
5801;SDS011;2927;49.366;8.530;2023-05-07T12:58:34;3.03;;;1.60;;
5801;SDS011;2927;49.366;8.530;2023-05-07T13:01:04;1.67;;;1.57;;
5801;SDS011;2927;49.366;8.530;2023-05-07T13:03:32;1.40;;;1.30;;
5801;SDS011;2927;49.366;8.530;2023-05-07T13:06:02;1.63;;;1.60;;
5801;SDS011;2927;49.366;8.530;2023-05-07T13:08:30;4.10;;;1.57;;
5801;SDS011;2927;49.366;8.530;2023-05-07T13:10:57;4.20;;;1.87;;
5801;SDS011;2927;49.366;8.530;2023-05-07T13:13:24;2.70;;;1.80;;
5801;SDS011;2927;49.366;8.530;2023-05-07T13:15:50;2.83;;;1.60;;
5801;SDS011;2927;49.366;8.530;2023-05-07T13:18:15;1.70;;;1.60;;
5801;SDS011;2927;49.366;8.530;2023-05-07T13:20:41;3.07;;;1.53;;
5801;SDS011;2927;49.366;8.530;2023-05-07T13:23:06;3.60;;;1.63;;
5801;SDS011;2927;49.366;8.530;2023-05-07T13:25:32;2.87;;;1.67;;
5801;SDS011;2927;49.366;8.530;2023-05-07T13:27:58;2.10;;;1.50;;
5801;SDS011;2927;49.366;8.530;2023-05-07T13:30:23;8.10;;;1.87;;
5801;SDS011;2927;49.366;8.530;2023-05-07T13:32:49;1.50;;;1.50;;
5801;SDS011;2927;49.366;8.530;2023-05-07T13:35:15;3.13;;;1.70;;
5801;SDS011;2927;49.366;8.530;2023-05-07T13:37:41;9.73;;;2.67;;
5801;SDS011;2927;49.366;8.530;2023-05-07T13:40:07;7.63;;;2.20;;
5801;SDS011;2927;49.366;8.530;2023-05-07T13:42:33;9.50;;;3.67;;
5801;SDS011;2927;49.366;8.530;2023-05-07T13:44:58;15.53;;;4.57;;
5801;SDS011;2927;49.366;8.530;2023-05-07T13:47:24;10.00;;;3.83;;
5801;SDS011;2927;49.366;8.530;2023-05-07T13:49:49;8.53;;;4.00;;
5801;SDS011;2927;49.366;8.530;2023-05-07T13:52:15;8.70;;;3.40;;
5801;SDS011;2927;49.366;8.530;2023-05-07T13:54:41;8.27;;;2.90;;
5801;SDS011;2927;49.366;8.530;2023-05-07T13:57:07;11.60;;;3.37;;
5801;SDS011;2927;49.366;8.530;2023-05-07T13:59:33;4.70;;;2.50;;
5801;SDS011;2927;49.366;8.530;2023-05-07T14:01:58;2.77;;;2.60;;
5801;SDS011;2927;49.366;8.530;2023-05-07T14:04:24;6.20;;;2.80;;
5801;SDS011;2927;49.366;8.530;2023-05-07T14:06:50;7.80;;;2.60;;
5801;SDS011;2927;49.366;8.530;2023-05-07T14:09:16;7.47;;;3.35;;
5801;SDS011;2927;49.366;8.530;2023-05-07T14:11:41;14.67;;;3.60;;
5801;SDS011;2927;49.366;8.530;2023-05-07T14:14:07;9.80;;;3.10;;
5801;SDS011;2927;49.366;8.530;2023-05-07T14:16:35;4.13;;;3.07;;
5801;SDS011;2927;49.366;8.530;2023-05-07T14:19:01;6.23;;;2.93;;
5801;SDS011;2927;49.366;8.530;2023-05-07T14:21:27;3.60;;;3.33;;
5801;SDS011;2927;49.366;8.530;2023-05-07T14:23:52;6.23;;;2.60;;
5801;SDS011;2927;49.366;8.530;2023-05-07T14:26:18;7.17;;;2.87;;
5801;SDS011;2927;49.366;8.530;2023-05-07T14:28:44;8.23;;;2.70;;
5801;SDS011;2927;49.366;8.530;2023-05-07T14:31:11;4.50;;;1.80;;
5801;SDS011;2927;49.366;8.530;2023-05-07T14:33:37;4.00;;;2.20;;
5801;SDS011;2927;49.366;8.530;2023-05-07T14:36:03;4.10;;;2.60;;
5801;SDS011;2927;49.366;8.530;2023-05-07T14:38:28;5.23;;;2.87;;
5801;SDS011;2927;49.366;8.530;2023-05-07T14:40:55;7.00;;;3.05;;
5801;SDS011;2927;49.366;8.530;2023-05-07T14:43:21;12.45;;;4.90;;
5801;SDS011;2927;49.366;8.530;2023-05-07T14:45:46;14.83;;;4.10;;
5801;SDS011;2927;49.366;8.530;2023-05-07T14:48:12;13.48;;;5.95;;
5801;SDS011;2927;49.366;8.530;2023-05-07T14:50:40;16.83;;;5.87;;
5801;SDS011;2927;49.366;8.530;2023-05-07T14:53:08;15.63;;;4.27;;
5801;SDS011;2927;49.366;8.530;2023-05-07T14:55:34;13.80;;;5.17;;
5801;SDS011;2927;49.366;8.530;2023-05-07T14:58:00;7.75;;;4.20;;
5801;SDS011;2927;49.366;8.530;2023-05-07T15:00:26;13.45;;;5.10;;
5801;SDS011;2927;49.366;8.530;2023-05-07T15:02:51;10.80;;;5.00;;
5801;SDS011;2927;49.366;8.530;2023-05-07T15:05:17;9.40;;;3.87;;
5801;SDS011;2927;49.366;8.530;2023-05-07T15:07:44;6.60;;;3.53;;
5801;SDS011;2927;49.366;8.530;2023-05-07T15:10:09;6.83;;;3.53;;
5801;SDS011;2927;49.366;8.530;2023-05-07T15:12:35;14.07;;;5.10;;
5801;SDS011;2927;49.366;8.530;2023-05-07T15:15:01;10.53;;;4.40;;
5801;SDS011;2927;49.366;8.530;2023-05-07T15:17:26;9.03;;;3.50;;
5801;SDS011;2927;49.366;8.530;2023-05-07T15:19:52;11.23;;;3.67;;
5801;SDS011;2927;49.366;8.530;2023-05-07T15:22:17;7.70;;;4.00;;
5801;SDS011;2927;49.366;8.530;2023-05-07T15:24:43;4.27;;;2.93;;
5801;SDS011;2927;49.366;8.530;2023-05-07T15:27:08;7.40;;;3.27;;
5801;SDS011;2927;49.366;8.530;2023-05-07T15:29:34;8.40;;;2.67;;
5801;SDS011;2927;49.366;8.530;2023-05-07T15:32:00;3.37;;;2.63;;
5801;SDS011;2927;49.366;8.530;2023-05-07T15:34:25;12.03;;;3.97;;
5801;SDS011;2927;49.366;8.530;2023-05-07T15:36:52;4.17;;;2.53;;
5801;SDS011;2927;49.366;8.530;2023-05-07T15:39:17;9.80;;;3.33;;